createdAt,value
2018-12-25T00:00:35.242Z,91.93
2018-12-25T00:03:01.045Z,92.22
2018-12-25T00:05:26.811Z,92.08
2018-12-25T00:07:52.579Z,91.91
2018-12-25T00:10:18.336Z,91.48
2018-12-25T00:12:44.131Z,91.46
2018-12-25T00:15:09.910Z,91.49
2018-12-25T00:17:35.699Z,91.53
2018-12-25T00:20:01.472Z,91.47
2018-12-25T00:22:27.305Z,91.33
2018-12-25T00:24:53.084Z,90.67
2018-12-25T00:27:18.884Z,90.47
2018-12-25T00:29:44.661Z,90.08
2018-12-25T00:32:10.552Z,90.22
2018-12-25T00:34:36.339Z,90.29
2018-12-25T00:37:02.921Z,90.15
2018-12-25T00:39:28.730Z,90.33
2018-12-25T00:41:54.518Z,90.32
2018-12-25T00:44:20.564Z,90.48
2018-12-25T00:46:46.713Z,90.62
2018-12-25T00:49:14.897Z,90.37
2018-12-25T00:51:40.796Z,90.33
2018-12-25T00:54:06.570Z,90.52
2018-12-25T00:57:03.434Z,90.19
2018-12-25T00:59:01.180Z,89.53
2018-12-25T01:01:27.171Z,89.45
2018-12-25T01:03:53.484Z,89.28
2018-12-25T01:06:19.387Z,89.75
2018-12-25T01:08:46.164Z,89.57
2018-12-25T01:11:12.082Z,89.70
2018-12-25T01:13:41.173Z,89.99
2018-12-25T01:16:06.925Z,90.06
2018-12-25T01:18:32.726Z,89.78
2018-12-25T01:20:58.641Z,89.79
2018-12-25T01:23:26.204Z,90.34
2018-12-25T01:25:52.088Z,90.42
2018-12-25T01:28:17.825Z,90.61
2018-12-25T01:30:43.582Z,90.52
2018-12-25T01:33:10.062Z,90.70
2018-12-25T01:35:35.855Z,90.76
2018-12-25T01:38:01.627Z,91.00
2018-12-25T01:40:27.512Z,91.07
2018-12-25T01:42:53.301Z,90.98
2018-12-25T01:45:19.082Z,90.97
2018-12-25T01:47:44.843Z,91.09
2018-12-25T01:50:31.355Z,91.11
2018-12-25T01:52:57.524Z,91.16
2018-12-25T01:55:23.344Z,91.07
2018-12-25T01:57:49.127Z,90.78
2018-12-25T02:00:14.909Z,90.65
2018-12-25T02:02:40.667Z,90.75
2018-12-25T02:05:06.488Z,90.77
2018-12-25T02:07:32.263Z,90.77
2018-12-25T02:09:58.038Z,90.54
2018-12-25T02:12:23.828Z,90.70
2018-12-25T02:14:49.623Z,90.63
2018-12-25T02:17:15.391Z,90.35
2018-12-25T02:19:41.530Z,90.16
2018-12-25T02:22:07.285Z,90.09
2018-12-25T02:24:33.096Z,90.11
2018-12-25T02:26:58.882Z,90.27
2018-12-25T02:29:24.649Z,89.83
2018-12-25T02:31:50.434Z,89.37
2018-12-25T02:34:16.223Z,88.94
2018-12-25T02:36:41.980Z,89.02
2018-12-25T02:39:07.748Z,88.89
2018-12-25T02:41:33.631Z,88.64
2018-12-25T02:43:59.406Z,88.18
2018-12-25T02:46:25.205Z,88.06
2018-12-25T02:48:50.971Z,87.64
2018-12-25T02:51:16.746Z,87.71
2018-12-25T02:53:42.527Z,87.79
2018-12-25T02:56:08.315Z,87.56
2018-12-25T02:58:34.085Z,87.36
2018-12-25T03:00:59.862Z,87.27
2018-12-25T03:03:25.652Z,87.08
2018-12-25T03:05:52.369Z,87.11
2018-12-25T03:08:18.130Z,86.88
2018-12-25T03:10:44.111Z,87.12
2018-12-25T03:13:09.844Z,86.81
2018-12-25T03:15:35.649Z,86.95
2018-12-25T03:18:01.418Z,86.75
2018-12-25T03:20:47.108Z,87.33
2018-12-25T03:23:13.191Z,87.33
2018-12-25T03:25:39.026Z,87.75
2018-12-25T03:28:04.787Z,87.99
2018-12-25T03:30:30.978Z,87.96
2018-12-25T03:32:56.712Z,88.02
2018-12-25T03:35:22.488Z,88.07
2018-12-25T03:37:48.339Z,88.17
2018-12-25T03:40:14.178Z,88.36
2018-12-25T03:42:39.973Z,88.41
2018-12-25T03:45:05.749Z,88.33
2018-12-25T03:47:31.534Z,88.10
2018-12-25T03:49:57.306Z,87.93
2018-12-25T03:52:23.122Z,87.70
2018-12-25T03:54:48.876Z,87.71
2018-12-25T03:57:14.668Z,87.29
2018-12-25T03:59:40.431Z,87.29
2018-12-25T04:02:06.588Z,87.05
2018-12-25T04:04:32.454Z,87.06
2018-12-25T04:06:58.232Z,87.72
2018-12-25T04:09:24.020Z,88.94
2018-12-25T04:11:49.811Z,89.91
2018-12-25T04:14:15.594Z,90.24
2018-12-25T04:16:41.385Z,90.24
2018-12-25T04:19:07.164Z,90.00
2018-12-25T04:21:32.942Z,90.28
2018-12-25T04:23:58.702Z,90.44
2018-12-25T04:26:24.487Z,90.59
2018-12-25T04:28:50.269Z,90.65
2018-12-25T04:31:16.048Z,90.34
2018-12-25T04:33:41.842Z,90.27
2018-12-25T04:36:07.622Z,90.00
2018-12-25T04:38:33.417Z,89.76
2018-12-25T04:40:59.189Z,89.67
2018-12-25T04:43:24.966Z,89.19
2018-12-25T04:45:50.733Z,89.22
2018-12-25T04:48:16.507Z,88.73
2018-12-25T04:50:42.271Z,88.46
2018-12-25T04:53:08.057Z,88.14
2018-12-25T04:55:33.812Z,88.02
2018-12-25T04:57:59.583Z,87.71
2018-12-25T05:00:25.334Z,87.72
2018-12-25T05:02:51.105Z,87.69
2018-12-25T05:05:16.864Z,87.45
2018-12-25T05:07:42.650Z,87.25
2018-12-25T05:10:08.402Z,87.25
2018-12-25T05:12:34.187Z,87.16
2018-12-25T05:14:59.938Z,87.19
2018-12-25T05:17:25.714Z,87.20
2018-12-25T05:19:51.481Z,86.68
2018-12-25T05:22:17.256Z,86.84
2018-12-25T05:24:43.015Z,86.78
2018-12-25T05:27:08.780Z,86.79
2018-12-25T05:29:34.556Z,86.81
2018-12-25T05:32:00.317Z,86.92
2018-12-25T05:34:26.084Z,86.98
2018-12-25T05:36:51.851Z,86.65
2018-12-25T05:39:17.630Z,86.79
2018-12-25T05:41:43.391Z,87.19
2018-12-25T05:44:09.163Z,87.52
2018-12-25T05:46:34.925Z,87.32
2018-12-25T05:49:00.700Z,87.09
2018-12-25T05:51:26.456Z,87.34
2018-12-25T05:53:52.247Z,87.30
2018-12-25T05:56:18.015Z,87.08
2018-12-25T05:58:43.781Z,86.68
2018-12-25T06:01:09.540Z,86.74
2018-12-25T06:03:35.321Z,86.71
2018-12-25T06:06:01.089Z,86.34
2018-12-25T06:08:26.860Z,86.04
2018-12-25T06:10:52.638Z,85.98
2018-12-25T06:13:18.405Z,86.13
2018-12-25T06:15:44.185Z,86.33
2018-12-25T06:18:09.953Z,85.83
2018-12-25T06:20:35.727Z,85.40
2018-12-25T06:23:01.483Z,85.51
2018-12-25T06:25:27.255Z,84.96
2018-12-25T06:27:53.013Z,85.21
2018-12-25T06:30:18.795Z,85.19
2018-12-25T06:32:44.553Z,84.82
2018-12-25T06:35:10.321Z,85.20
2018-12-25T06:37:36.073Z,86.03
2018-12-25T06:42:56.101Z,86.89
2018-12-25T06:45:21.886Z,87.32
2018-12-25T06:47:47.641Z,87.26
2018-12-25T06:50:13.446Z,87.29
2018-12-25T06:52:39.201Z,87.25
2018-12-25T06:55:04.968Z,87.01
2018-12-25T06:57:30.728Z,86.86
2018-12-25T06:59:56.506Z,86.81
2018-12-25T07:02:22.274Z,86.69
2018-12-25T07:04:48.154Z,86.83
2018-12-25T07:07:13.923Z,86.97
2018-12-25T07:09:39.685Z,87.05
2018-12-25T07:12:05.474Z,87.28
2018-12-25T07:14:31.220Z,87.18
2018-12-25T07:16:56.988Z,87.27
2018-12-25T07:19:22.741Z,87.16
2018-12-25T07:21:48.512Z,87.54
2018-12-25T07:24:14.275Z,87.66
2018-12-25T07:26:40.050Z,87.57
2018-12-25T07:29:05.819Z,87.75
2018-12-25T07:31:31.595Z,87.92
2018-12-25T07:33:57.353Z,87.85
2018-12-25T07:36:23.136Z,88.18
2018-12-25T07:38:48.896Z,88.23
2018-12-25T07:41:14.665Z,88.36
2018-12-25T07:43:40.431Z,88.19
2018-12-25T07:46:06.198Z,88.42
2018-12-25T07:48:31.965Z,88.15
2018-12-25T07:50:57.746Z,88.12
2018-12-25T07:53:23.538Z,88.08
2018-12-25T07:55:49.306Z,87.87
2018-12-25T07:58:15.075Z,88.03
2018-12-25T08:00:40.844Z,88.03
2018-12-25T08:03:06.594Z,87.78
2018-12-25T08:05:32.345Z,87.77
2018-12-25T08:07:58.113Z,87.59
2018-12-25T08:10:23.878Z,87.82
2018-12-25T08:12:49.661Z,87.21
2018-12-25T08:15:15.426Z,86.91
2018-12-25T08:17:41.200Z,86.71
2018-12-25T08:20:06.960Z,86.70
2018-12-25T08:22:32.744Z,86.57
2018-12-25T08:24:58.504Z,86.46
2018-12-25T08:27:24.286Z,86.06
2018-12-25T08:29:50.050Z,85.91
2018-12-25T08:32:15.831Z,85.78
2018-12-25T08:34:41.587Z,85.71
2018-12-25T08:37:07.362Z,85.52
2018-12-25T08:39:33.121Z,85.22
2018-12-25T08:41:58.917Z,85.44
2018-12-25T08:44:24.670Z,85.64
2018-12-25T08:46:50.448Z,85.31
2018-12-25T08:49:16.209Z,85.12
2018-12-25T08:51:42.004Z,84.98
2018-12-25T08:54:07.783Z,85.00
2018-12-25T08:56:33.545Z,85.12
2018-12-25T08:58:59.319Z,85.47
2018-12-25T09:01:25.073Z,85.68
2018-12-25T09:03:50.845Z,85.94
2018-12-25T09:06:16.603Z,86.09
2018-12-25T09:08:42.371Z,86.24
2018-12-25T09:11:08.127Z,86.26
2018-12-25T09:13:33.894Z,86.25
2018-12-25T09:15:59.680Z,86.31
2018-12-25T09:18:25.456Z,86.34
2018-12-25T09:20:51.213Z,85.49
2018-12-25T09:23:16.991Z,84.96
2018-12-25T09:25:42.777Z,83.91
2018-12-25T09:28:08.555Z,83.60
2018-12-25T09:30:34.323Z,83.19
2018-12-25T09:33:00.109Z,82.63
2018-12-25T09:35:25.865Z,81.81
2018-12-25T09:37:51.636Z,81.94
2018-12-25T09:40:17.393Z,81.92
2018-12-25T09:42:43.170Z,81.76
2018-12-25T09:45:08.928Z,81.07
2018-12-25T09:47:34.682Z,81.37
2018-12-25T09:50:00.461Z,80.03
2018-12-25T09:52:26.225Z,79.31
2018-12-25T09:54:52.019Z,79.31
2018-12-25T09:57:17.782Z,79.40
2018-12-25T09:59:43.652Z,79.10
2018-12-25T10:02:09.424Z,79.08
2018-12-25T10:04:35.190Z,79.30
2018-12-25T10:07:00.949Z,79.86
2018-12-25T10:09:26.723Z,79.81
2018-12-25T10:11:52.479Z,79.66
2018-12-25T10:14:18.253Z,79.47
2018-12-25T10:16:44.009Z,79.20
2018-12-25T10:19:09.785Z,78.57
2018-12-25T10:21:35.539Z,79.35
2018-12-25T10:24:01.325Z,79.92
2018-12-25T10:26:27.082Z,80.90
2018-12-25T10:28:52.860Z,81.40
2018-12-25T10:31:18.627Z,81.76
2018-12-25T10:33:44.407Z,81.71
2018-12-25T10:36:10.165Z,81.02
2018-12-25T10:38:35.939Z,80.92
2018-12-25T10:41:01.699Z,81.06
2018-12-25T10:43:27.457Z,80.63
2018-12-25T10:45:53.228Z,80.67
2018-12-25T10:48:18.981Z,80.56
2018-12-25T10:50:44.759Z,80.51
2018-12-25T10:53:10.539Z,80.83
2018-12-25T10:55:36.326Z,80.27
2018-12-25T10:58:02.083Z,80.06
2018-12-25T11:01:09.531Z,78.96
2018-12-25T11:03:35.299Z,78.65
2018-12-25T11:06:01.072Z,78.51
2018-12-25T11:08:26.828Z,78.40
2018-12-25T11:10:52.590Z,78.38
2018-12-25T11:13:18.351Z,78.03
2018-12-25T11:15:44.138Z,77.99
2018-12-25T11:18:10.143Z,78.00
2018-12-25T11:20:35.921Z,78.30
2018-12-25T11:23:01.680Z,78.23
2018-12-25T11:25:27.454Z,78.04
2018-12-25T11:27:53.212Z,78.06
2018-12-25T11:30:18.985Z,78.07
2018-12-25T11:32:44.859Z,78.20
2018-12-25T11:35:10.631Z,77.77
2018-12-25T11:37:36.392Z,77.52
2018-12-25T11:40:02.170Z,77.27
2018-12-25T11:42:27.927Z,77.05
2018-12-25T11:44:53.695Z,77.32
2018-12-25T11:47:19.467Z,77.20
2018-12-25T11:49:45.240Z,77.62
2018-12-25T11:52:10.990Z,77.90
2018-12-25T11:54:36.796Z,78.07
2018-12-25T11:57:02.591Z,76.79
2018-12-25T11:59:28.369Z,77.60
2018-12-25T12:01:54.151Z,78.06
2018-12-25T12:04:19.918Z,77.22
2018-12-25T12:06:45.694Z,77.32
2018-12-25T12:09:11.454Z,77.39
2018-12-25T12:11:37.222Z,76.96
2018-12-25T12:14:03.086Z,77.47
2018-12-25T12:16:28.862Z,77.81
2018-12-25T12:18:54.618Z,78.15
2018-12-25T12:21:20.386Z,78.01
2018-12-25T12:23:46.157Z,78.28
2018-12-25T12:26:11.923Z,78.92
2018-12-25T12:29:19.388Z,78.90
2018-12-25T12:31:45.161Z,79.03
2018-12-25T12:34:10.914Z,79.26
2018-12-25T12:36:36.686Z,79.48
2018-12-25T12:42:29.525Z,78.67
2018-12-25T12:44:55.578Z,77.36
2018-12-25T12:47:21.349Z,77.50
2018-12-25T12:49:47.179Z,77.77
2018-12-25T12:52:13.009Z,77.59
2018-12-25T12:54:38.767Z,77.48
2018-12-25T12:59:58.748Z,76.92
2018-12-25T13:02:24.526Z,76.97
2018-12-25T13:04:50.280Z,76.85
2018-12-25T13:07:16.056Z,77.00
2018-12-25T13:09:41.813Z,76.71
2018-12-25T13:12:07.608Z,77.00
2018-12-25T13:14:33.368Z,77.12
2018-12-25T13:16:59.135Z,77.17
2018-12-25T13:19:24.889Z,77.25
2018-12-25T13:21:50.661Z,77.20
2018-12-25T13:24:16.481Z,77.04
2018-12-25T13:26:42.206Z,77.35
2018-12-25T13:29:08.810Z,76.97
2018-12-25T13:31:35.158Z,77.10
2018-12-25T13:34:00.987Z,77.09
2018-12-25T13:36:26.758Z,77.50
2018-12-25T13:38:52.519Z,77.93
2018-12-25T13:41:18.289Z,78.01
2018-12-25T13:46:52.049Z,77.88
2018-12-25T13:49:19.436Z,77.91
2018-12-25T13:51:45.220Z,78.24
2018-12-25T13:54:24.070Z,77.50
2018-12-25T13:56:49.860Z,77.50
2018-12-25T13:59:15.610Z,77.64
2018-12-25T14:01:41.394Z,77.68
2018-12-25T14:04:07.153Z,78.28
2018-12-25T14:06:32.928Z,78.36
2018-12-25T14:08:58.694Z,78.46
2018-12-25T14:11:24.459Z,78.45
2018-12-25T14:13:50.234Z,78.67
2018-12-25T14:16:15.995Z,79.23
2018-12-25T14:18:41.760Z,79.66
2018-12-25T14:21:07.530Z,79.35
2018-12-25T14:23:33.304Z,79.04
2018-12-25T14:25:59.067Z,78.93
2018-12-25T14:28:24.848Z,79.14
2018-12-25T14:30:50.614Z,78.68
2018-12-25T14:33:16.390Z,78.63
2018-12-25T14:35:42.144Z,78.26
2018-12-25T14:38:07.912Z,77.94
2018-12-25T14:40:33.672Z,78.25
2018-12-25T14:42:59.435Z,78.62
2018-12-25T14:45:25.202Z,78.54
2018-12-25T14:47:50.973Z,78.24
2018-12-25T14:50:16.734Z,78.31
2018-12-25T14:52:42.503Z,78.24
2018-12-25T14:55:08.285Z,78.46
2018-12-25T14:57:34.051Z,78.27
2018-12-25T14:59:59.807Z,78.35
2018-12-25T15:02:25.571Z,78.78
2018-12-25T15:04:51.336Z,79.08
2018-12-25T15:07:17.134Z,79.42
2018-12-25T15:09:42.999Z,79.74
2018-12-25T15:12:08.767Z,79.97
2018-12-25T15:14:34.535Z,79.31
2018-12-25T15:17:00.292Z,78.89
2018-12-25T15:19:26.060Z,78.96
2018-12-25T15:21:51.829Z,78.37
2018-12-25T15:24:17.600Z,78.41
2018-12-25T15:26:43.364Z,78.38
2018-12-25T15:29:09.139Z,78.44
2018-12-25T15:31:34.899Z,78.54
2018-12-25T15:34:00.665Z,78.73
2018-12-25T15:36:26.436Z,78.44
2018-12-25T15:38:52.206Z,78.55
2018-12-25T15:41:17.970Z,78.36
2018-12-25T15:43:43.749Z,78.56
2018-12-25T15:46:09.523Z,78.93
2018-12-25T15:48:35.289Z,79.04
2018-12-25T15:51:01.050Z,79.41
2018-12-25T15:53:26.831Z,79.82
2018-12-25T15:55:52.593Z,79.90
2018-12-25T15:58:18.358Z,80.07
2018-12-25T16:00:44.135Z,80.29
2018-12-25T16:03:09.885Z,80.18
2018-12-25T16:05:35.664Z,80.27
2018-12-25T16:08:01.429Z,80.42
2018-12-25T16:10:27.206Z,80.51
2018-12-25T16:12:52.972Z,80.67
2018-12-25T16:15:18.746Z,80.44
2018-12-25T16:17:44.502Z,80.11
2018-12-25T16:20:10.369Z,80.07
2018-12-25T16:22:36.147Z,80.27
2018-12-25T16:25:01.933Z,80.31
2018-12-25T16:27:27.687Z,80.38
2018-12-25T16:29:53.450Z,80.36
2018-12-25T16:32:19.236Z,80.46
2018-12-25T16:34:44.985Z,80.22
2018-12-25T16:37:10.758Z,80.36
2018-12-25T16:39:36.516Z,80.52
2018-12-25T16:42:02.288Z,80.52
2018-12-25T16:44:28.065Z,80.71
2018-12-25T16:46:53.828Z,80.71
2018-12-25T16:49:19.577Z,80.65
2018-12-25T16:51:45.368Z,80.69
2018-12-25T16:54:11.135Z,80.73
2018-12-25T16:56:36.909Z,80.86
2018-12-25T16:59:02.675Z,80.79
2018-12-25T17:01:28.460Z,80.53
2018-12-25T17:03:54.228Z,80.89
2018-12-25T17:06:20.044Z,81.02
2018-12-25T17:08:45.794Z,81.48
2018-12-25T17:11:11.575Z,81.67
2018-12-25T17:13:37.354Z,81.38
2018-12-25T17:16:03.109Z,80.85
2018-12-25T17:18:28.882Z,81.22
2018-12-25T17:20:54.715Z,81.22
2018-12-25T17:23:20.520Z,81.40
2018-12-25T17:26:06.164Z,81.77
2018-12-25T17:28:31.936Z,81.77
2018-12-25T17:30:57.687Z,81.85
2018-12-25T17:33:23.460Z,81.94
2018-12-25T17:35:49.221Z,82.03
2018-12-25T17:38:14.999Z,82.03
2018-12-25T17:40:40.779Z,81.92
2018-12-25T17:43:26.439Z,81.89
2018-12-25T17:45:52.199Z,81.89
2018-12-25T17:48:17.988Z,81.71
2018-12-25T17:50:43.748Z,81.68
2018-12-25T17:53:09.520Z,81.70
2018-12-25T17:55:35.295Z,81.85
2018-12-25T17:58:01.082Z,82.05
2018-12-25T18:00:26.854Z,81.99
2018-12-25T18:02:52.618Z,81.92
2018-12-25T18:05:18.404Z,81.80
2018-12-25T18:07:44.258Z,81.89
2018-12-25T18:10:10.049Z,81.58
2018-12-25T18:12:35.814Z,81.97
2018-12-25T18:15:01.587Z,82.42
2018-12-25T18:17:27.345Z,82.48
2018-12-25T18:19:53.116Z,82.44
2018-12-25T18:22:18.869Z,82.58
2018-12-25T18:24:44.637Z,82.32
2018-12-25T18:27:10.398Z,82.26
2018-12-25T18:29:36.245Z,82.03
2018-12-25T18:32:02.113Z,81.93
2018-12-25T18:34:27.914Z,82.05
2018-12-25T18:36:53.681Z,82.04
2018-12-25T18:39:19.496Z,82.07
2018-12-25T18:41:45.255Z,82.04
2018-12-25T18:44:11.069Z,82.32
2018-12-25T18:46:36.823Z,82.57
2018-12-25T18:49:02.573Z,82.47
2018-12-25T18:51:28.349Z,82.79
2018-12-25T18:53:54.113Z,82.87
2018-12-25T18:56:19.902Z,82.92
2018-12-25T18:58:45.771Z,82.95
2018-12-25T19:01:11.543Z,83.12
2018-12-25T19:03:37.300Z,83.27
2018-12-25T19:06:03.070Z,83.46
2018-12-25T19:08:28.826Z,83.65
2018-12-25T19:10:54.595Z,83.75
2018-12-25T19:13:20.349Z,83.62
2018-12-25T19:15:46.220Z,83.85
2018-12-25T19:18:11.981Z,83.89
2018-12-25T19:20:37.763Z,83.73
2018-12-25T19:23:23.407Z,83.53
2018-12-25T19:25:49.182Z,83.53
2018-12-25T19:28:14.945Z,83.28
2018-12-25T19:30:40.716Z,83.27
2018-12-25T19:33:06.487Z,83.35
2018-12-25T19:35:32.248Z,82.79
2018-12-25T19:37:58.026Z,82.84
2018-12-25T19:40:23.795Z,82.49
2018-12-25T19:42:49.570Z,82.73
2018-12-25T19:45:15.438Z,82.75
2018-12-25T19:47:41.242Z,82.95
2018-12-25T19:50:06.993Z,82.85
2018-12-25T19:52:32.782Z,83.04
2018-12-25T19:54:58.551Z,82.92
2018-12-25T19:57:24.330Z,83.05
2018-12-25T19:59:50.089Z,83.07
2018-12-25T20:02:15.865Z,83.44
2018-12-25T20:08:34.712Z,83.53
2018-12-25T20:12:00.140Z,83.96
2018-12-25T20:15:05.662Z,84.03
2018-12-25T20:18:11.211Z,84.21
2018-12-25T20:21:36.622Z,84.39
2018-12-25T20:24:44.062Z,84.28
2018-12-25T20:28:13.469Z,84.29
2018-12-25T20:38:01.625Z,83.85
2018-12-25T20:41:07.153Z,83.72
2018-12-25T20:44:12.697Z,83.62
2018-12-25T20:47:18.226Z,83.61
2018-12-25T20:53:38.955Z,83.28
2018-12-25T20:57:04.387Z,82.98
2018-12-25T21:00:09.946Z,82.85
2018-12-25T21:03:15.454Z,82.92
2018-12-25T21:06:21.010Z,82.97
2018-12-25T21:09:26.553Z,82.78
2018-12-25T21:16:01.061Z,82.95
2018-12-25T21:19:08.482Z,83.26
2018-12-25T21:22:33.915Z,83.33
2018-12-25T21:25:59.367Z,83.32
2018-12-25T21:29:06.818Z,83.20
2018-12-25T21:35:27.780Z,82.82
2018-12-25T21:37:53.632Z,82.98
2018-12-25T21:40:19.499Z,82.77
2018-12-25T21:42:45.261Z,82.88
2018-12-25T21:45:11.182Z,82.87
2018-12-25T21:51:04.032Z,82.68
2018-12-25T21:53:29.881Z,82.67
2018-12-25T21:55:55.668Z,82.84
2018-12-25T21:58:21.543Z,82.90
2018-12-25T22:00:47.314Z,83.05
2018-12-25T22:03:13.074Z,83.23
2018-12-25T22:05:38.857Z,83.39
2018-12-25T22:08:04.625Z,83.59
2018-12-25T22:10:30.391Z,84.00
2018-12-25T22:12:56.167Z,84.33
2018-12-25T22:15:21.972Z,84.81
2018-12-25T22:17:47.703Z,85.08
2018-12-25T22:20:33.342Z,85.52
2018-12-25T22:22:59.124Z,86.41
2018-12-25T22:25:27.336Z,87.42
2018-12-25T22:27:52.557Z,87.99
2018-12-25T22:30:18.316Z,88.71
2018-12-25T22:32:44.085Z,89.46
2018-12-25T22:35:09.843Z,90.01
2018-12-25T22:37:35.627Z,90.71
2018-12-25T22:43:28.559Z,91.92
2018-12-25T22:45:54.314Z,92.22
2018-12-25T22:48:20.544Z,92.58
2018-12-25T22:50:46.324Z,93.07
2018-12-25T22:53:19.353Z,93.48
2018-12-25T22:55:45.122Z,93.85
2018-12-25T22:58:10.893Z,94.43
2018-12-25T23:00:36.759Z,94.53
2018-12-25T23:03:02.540Z,94.86
2018-12-25T23:08:35.552Z,95.35
2018-12-25T23:11:01.312Z,95.61
2018-12-25T23:13:27.087Z,95.50
2018-12-25T23:15:52.853Z,95.65
2018-12-25T23:18:18.647Z,95.83
2018-12-25T23:20:44.401Z,96.31
2018-12-25T23:23:10.171Z,96.20
2018-12-25T23:25:44.447Z,96.27
2018-12-25T23:28:03.609Z,96.29
2018-12-25T23:30:29.375Z,96.29
2018-12-25T23:32:55.137Z,96.44
2018-12-25T23:35:20.910Z,96.38
2018-12-25T23:37:46.755Z,96.34
2018-12-25T23:40:12.502Z,96.67
2018-12-25T23:42:38.255Z,96.58
2018-12-25T23:45:45.702Z,96.74
2018-12-25T23:48:11.467Z,96.79
2018-12-25T23:51:18.919Z,96.91
2018-12-25T23:53:44.692Z,97.18
2018-12-25T23:56:10.464Z,97.60
2018-12-25T23:58:36.230Z,97.47
